createdAt,value
2019-01-26T00:01:08.801Z,14.67
2019-01-26T00:03:40.461Z,12.60
2019-01-26T00:06:12.223Z,11.73
2019-01-26T00:08:46.939Z,15.47
2019-01-26T00:11:22.065Z,13.17
2019-01-26T00:13:53.891Z,15.03
2019-01-26T00:16:25.660Z,15.03
2019-01-26T00:18:57.344Z,15.13
2019-01-26T00:21:29.034Z,14.67
2019-01-26T00:24:04.538Z,14.90
2019-01-26T00:26:36.491Z,14.43
2019-01-26T00:29:08.289Z,16.87
2019-01-26T00:31:39.924Z,17.67
2019-01-26T00:34:12.838Z,12.67
2019-01-26T00:36:44.490Z,16.70
2019-01-26T00:39:16.161Z,13.07
2019-01-26T00:41:53.751Z,13.30
2019-01-26T00:44:26.702Z,16.23
2019-01-26T00:46:59.939Z,15.23
2019-01-26T00:49:31.633Z,17.60
2019-01-26T00:52:03.300Z,12.60
2019-01-26T00:54:35.015Z,13.60
2019-01-26T00:57:06.780Z,11.80
2019-01-26T00:59:41.521Z,11.60
2019-01-26T01:02:15.175Z,12.93
2019-01-26T01:04:46.973Z,14.73
2019-01-26T01:07:18.596Z,10.17
2019-01-26T01:09:50.381Z,14.87
2019-01-26T01:12:23.006Z,13.67
2019-01-26T01:14:54.845Z,12.83
2019-01-26T01:17:28.106Z,15.03
2019-01-26T01:19:59.724Z,17.13
2019-01-26T01:22:31.412Z,14.87
2019-01-26T01:25:03.061Z,14.10
2019-01-26T01:27:34.721Z,14.33
2019-01-26T01:30:08.567Z,13.10
2019-01-26T01:32:40.287Z,17.03
2019-01-26T01:35:11.914Z,16.47
2019-01-26T01:37:43.679Z,11.20
2019-01-26T01:40:18.515Z,15.40
2019-01-26T01:42:50.228Z,15.40
2019-01-26T01:45:22.215Z,12.97
2019-01-26T01:47:54.011Z,13.97
2019-01-26T01:50:26.903Z,11.83
2019-01-26T01:53:06.321Z,13.80
2019-01-26T01:55:38.101Z,15.97
2019-01-26T01:58:09.919Z,16.97
2019-01-26T02:00:43.154Z,15.37
2019-01-26T02:03:15.030Z,17.37
2019-01-26T02:05:46.984Z,14.33
2019-01-26T02:08:22.618Z,11.50
2019-01-26T02:10:55.062Z,14.43
2019-01-26T02:13:33.011Z,13.27
2019-01-26T02:16:14.342Z,13.70
2019-01-26T02:19:04.128Z,16.37
2019-01-26T02:21:43.949Z,15.90
2019-01-26T02:24:21.155Z,15.90
2019-01-26T02:26:53.027Z,16.20
2019-01-26T02:29:24.705Z,21.73
2019-01-26T02:31:57.562Z,18.03
2019-01-26T02:34:30.332Z,15.60
2019-01-26T02:37:06.827Z,16.17
2019-01-26T02:39:42.064Z,15.07
2019-01-26T02:42:15.688Z,23.83
2019-01-26T02:44:47.377Z,17.77
2019-01-26T02:47:18.978Z,13.33
2019-01-26T02:49:50.610Z,12.27
2019-01-26T02:52:22.238Z,14.50
2019-01-26T02:54:53.872Z,16.77
2019-01-26T02:57:25.468Z,15.07
2019-01-26T02:59:57.134Z,12.33
2019-01-26T03:02:29.306Z,15.20
2019-01-26T03:05:01.554Z,16.03
2019-01-26T03:07:33.123Z,14.27
2019-01-26T03:10:05.771Z,14.57
2019-01-26T03:12:37.461Z,13.80
2019-01-26T03:15:12.195Z,14.70
2019-01-26T03:17:43.791Z,13.17
2019-01-26T03:20:16.538Z,14.03
2019-01-26T03:22:48.328Z,14.00
2019-01-26T03:25:21.153Z,14.27
2019-01-26T03:27:52.793Z,12.00
2019-01-26T03:30:27.188Z,17.80
2019-01-26T03:32:58.842Z,13.67
2019-01-26T03:35:30.460Z,11.87
2019-01-26T03:38:02.143Z,11.23
2019-01-26T03:40:33.940Z,10.67
2019-01-26T03:43:05.636Z,10.77
2019-01-26T03:45:37.436Z,12.60
2019-01-26T03:48:10.560Z,12.80
2019-01-26T03:50:42.230Z,13.80
2019-01-26T03:53:13.880Z,9.90
2019-01-26T03:55:45.997Z,12.10
2019-01-26T03:58:17.815Z,10.47
2019-01-26T04:00:49.444Z,13.20
2019-01-26T04:03:21.252Z,13.47
2019-01-26T04:05:52.951Z,11.17
2019-01-26T04:08:24.608Z,11.90
2019-01-26T04:10:56.817Z,13.67
2019-01-26T04:13:28.543Z,13.47
2019-01-26T04:16:00.173Z,11.53
2019-01-26T04:18:31.903Z,9.40
2019-01-26T04:21:03.517Z,11.43
2019-01-26T04:23:35.153Z,15.03
2019-01-26T04:26:07.220Z,10.03
2019-01-26T04:28:38.858Z,13.70
2019-01-26T04:31:10.487Z,8.53
2019-01-26T04:33:42.248Z,9.87
2019-01-26T04:36:13.897Z,11.27
2019-01-26T04:38:49.825Z,9.57
2019-01-26T04:41:22.730Z,10.57
2019-01-26T04:43:54.351Z,9.50
2019-01-26T04:46:26.085Z,10.83
2019-01-26T04:48:57.808Z,11.63
2019-01-26T04:51:29.416Z,7.60
2019-01-26T04:54:01.143Z,9.90
2019-01-26T04:56:32.829Z,10.60
2019-01-26T04:59:04.586Z,11.90
2019-01-26T05:01:36.169Z,11.03
2019-01-26T05:04:07.978Z,9.07
2019-01-26T05:06:39.567Z,11.30
2019-01-26T05:09:11.340Z,9.03
2019-01-26T05:11:43.596Z,10.63
2019-01-26T05:14:15.326Z,10.07
2019-01-26T05:16:46.954Z,11.57
2019-01-26T05:19:19.004Z,10.10
2019-01-26T05:21:50.664Z,13.43
2019-01-26T05:24:22.317Z,7.73
2019-01-26T05:26:53.992Z,11.10
2019-01-26T05:29:25.646Z,9.90
2019-01-26T05:31:57.412Z,11.03
2019-01-26T05:34:29.021Z,9.83
2019-01-26T05:37:00.962Z,11.50
2019-01-26T05:39:32.613Z,10.97
2019-01-26T05:42:04.289Z,10.57
2019-01-26T05:44:35.892Z,16.13
2019-01-26T05:47:09.034Z,8.20
2019-01-26T05:49:40.730Z,10.63
2019-01-26T05:52:12.482Z,9.10
2019-01-26T05:54:49.475Z,8.93
2019-01-26T05:57:22.458Z,12.07
2019-01-26T05:59:55.252Z,10.47
2019-01-26T06:02:27.387Z,9.00
2019-01-26T06:04:59.176Z,8.83
2019-01-26T06:07:31.649Z,11.30
2019-01-26T06:10:03.266Z,9.90
2019-01-26T06:12:35.204Z,12.20
2019-01-26T06:15:08.003Z,10.43
2019-01-26T06:17:39.639Z,10.70
2019-01-26T06:20:11.828Z,10.97
2019-01-26T06:22:43.813Z,9.70
2019-01-26T06:25:16.782Z,10.40
2019-01-26T06:27:48.832Z,9.13
2019-01-26T06:30:23.346Z,8.40
2019-01-26T06:32:54.976Z,12.67
2019-01-26T06:35:26.587Z,8.43
2019-01-26T06:37:58.361Z,10.53
2019-01-26T06:40:29.958Z,9.17
2019-01-26T06:43:01.652Z,10.93
2019-01-26T06:45:33.353Z,10.63
2019-01-26T06:48:05.118Z,10.20
2019-01-26T06:50:36.778Z,9.53
2019-01-26T06:53:08.519Z,10.37
2019-01-26T06:55:42.881Z,11.10
2019-01-26T06:58:14.598Z,12.47
2019-01-26T07:00:50.613Z,10.10
2019-01-26T07:03:24.821Z,12.70
2019-01-26T07:06:16.943Z,8.07
2019-01-26T07:08:53.873Z,7.97
2019-01-26T07:11:39.889Z,12.00
2019-01-26T07:14:10.023Z,8.60
2019-01-26T07:16:42.112Z,9.50
2019-01-26T07:19:13.857Z,7.60
2019-01-26T07:21:45.503Z,10.33
2019-01-26T07:24:17.241Z,9.47
2019-01-26T07:26:48.917Z,8.27
2019-01-26T07:29:20.589Z,8.63
2019-01-26T07:31:52.535Z,9.70
2019-01-26T07:34:24.187Z,9.80
2019-01-26T07:36:55.867Z,9.60
2019-01-26T07:39:27.687Z,9.90
2019-01-26T07:41:59.392Z,6.57
2019-01-26T07:44:31.008Z,9.37
2019-01-26T07:47:02.677Z,7.43
2019-01-26T07:49:34.384Z,7.80
2019-01-26T07:52:06.115Z,8.50
2019-01-26T07:54:37.859Z,10.43
2019-01-26T07:57:09.554Z,7.17
2019-01-26T07:59:41.210Z,7.97
2019-01-26T08:02:12.821Z,8.10
2019-01-26T08:04:44.536Z,7.57
2019-01-26T08:07:16.207Z,6.83
2019-01-26T08:09:48.066Z,5.30
2019-01-26T08:12:20.409Z,7.10
2019-01-26T08:14:52.175Z,7.10
2019-01-26T08:17:23.949Z,7.40
2019-01-26T08:19:55.731Z,8.33
2019-01-26T08:22:27.656Z,6.90
2019-01-26T08:24:59.550Z,7.20
2019-01-26T08:27:31.246Z,7.93
2019-01-26T08:30:03.455Z,5.33
2019-01-26T08:32:35.223Z,7.97
2019-01-26T08:35:07.236Z,7.17
2019-01-26T08:37:38.982Z,5.80
2019-01-26T08:40:12.455Z,8.70
2019-01-26T08:42:44.333Z,6.47
2019-01-26T08:45:16.870Z,7.70
2019-01-26T08:47:48.906Z,9.83
2019-01-26T08:50:29.149Z,6.43
2019-01-26T08:53:00.910Z,5.63
2019-01-26T08:55:32.572Z,6.20
2019-01-26T08:58:04.665Z,6.67
2019-01-26T09:00:36.354Z,7.27
2019-01-26T09:03:42.330Z,6.60
2019-01-26T09:06:24.504Z,7.47
2019-01-26T09:08:56.217Z,7.70
2019-01-26T09:11:29.364Z,6.20
2019-01-26T09:14:01.041Z,7.03
2019-01-26T09:16:32.772Z,7.00
2019-01-26T09:19:07.424Z,6.07
2019-01-26T09:21:39.091Z,8.70
2019-01-26T09:24:10.920Z,7.17
2019-01-26T09:26:42.827Z,5.30
2019-01-26T09:29:16.113Z,5.93
2019-01-26T09:31:47.874Z,7.20
2019-01-26T09:34:19.832Z,5.90
2019-01-26T09:36:51.511Z,7.53
2019-01-26T09:39:23.331Z,5.00
2019-01-26T09:41:55.213Z,6.60
2019-01-26T09:44:28.091Z,4.80
2019-01-26T09:46:59.762Z,5.77
2019-01-26T09:49:31.428Z,5.77
2019-01-26T09:52:07.621Z,6.27
2019-01-26T09:54:39.565Z,6.17
2019-01-26T09:57:11.225Z,5.27
2019-01-26T09:59:42.907Z,7.13
2019-01-26T10:02:14.613Z,6.43
2019-01-26T10:04:46.313Z,5.83
2019-01-26T10:07:25.921Z,7.80
2019-01-26T10:09:57.719Z,6.87
2019-01-26T10:12:32.481Z,5.33
2019-01-26T10:15:04.458Z,7.03
2019-01-26T10:17:45.444Z,6.83
2019-01-26T10:20:19.710Z,6.97
2019-01-26T10:22:51.734Z,6.50
2019-01-26T10:25:26.028Z,7.90
2019-01-26T10:27:58.019Z,7.77
2019-01-26T10:30:37.824Z,6.00
2019-01-26T10:33:13.296Z,5.20
2019-01-26T10:36:17.599Z,6.60
2019-01-26T10:39:01.623Z,7.13
2019-01-26T10:42:01.385Z,7.00
2019-01-26T10:44:34.041Z,7.30
2019-01-26T10:47:06.528Z,6.63
2019-01-26T10:49:41.300Z,6.13
2019-01-26T10:52:13.090Z,6.97
2019-01-26T10:54:45.111Z,5.67
2019-01-26T10:57:16.917Z,7.30
2019-01-26T10:59:51.401Z,7.73
2019-01-26T11:02:23.165Z,6.60
2019-01-26T11:04:57.724Z,7.80
2019-01-26T11:07:29.548Z,6.17
2019-01-26T11:10:01.446Z,6.40
2019-01-26T11:12:33.729Z,8.17
2019-01-26T11:15:06.384Z,6.70
2019-01-26T11:17:39.930Z,6.53
2019-01-26T11:20:12.486Z,8.67
2019-01-26T11:22:45.893Z,5.40
2019-01-26T11:25:17.904Z,5.73
2019-01-26T11:27:50.837Z,5.93
2019-01-26T11:30:26.185Z,5.80
2019-01-26T11:32:58.135Z,6.60
2019-01-26T11:35:29.885Z,7.03
2019-01-26T11:38:01.662Z,6.20
2019-01-26T11:40:36.810Z,9.60
2019-01-26T11:43:08.784Z,6.80
2019-01-26T11:46:02.263Z,6.57
2019-01-26T11:48:37.352Z,6.17
2019-01-26T11:51:27.874Z,6.60
2019-01-26T11:53:59.625Z,6.97
2019-01-26T11:56:50.313Z,6.33
2019-01-26T11:59:22.187Z,7.77
2019-01-26T12:02:00.784Z,6.87
2019-01-26T12:04:52.890Z,8.50
2019-01-26T12:07:34.863Z,7.33
2019-01-26T12:10:10.384Z,6.27
2019-01-26T12:12:42.850Z,5.90
2019-01-26T12:15:16.981Z,7.37
2019-01-26T12:17:48.940Z,6.80
2019-01-26T12:20:21.544Z,5.27
2019-01-26T12:22:53.661Z,5.70
2019-01-26T12:25:25.509Z,5.73
2019-01-26T12:27:57.628Z,6.17
2019-01-26T12:30:31.097Z,7.47
2019-01-26T12:33:02.779Z,6.23
2019-01-26T12:35:34.415Z,6.90
2019-01-26T12:38:08.161Z,5.67
2019-01-26T12:40:39.988Z,8.70
2019-01-26T12:43:12.086Z,7.27
2019-01-26T12:45:47.448Z,9.93
2019-01-26T12:48:19.054Z,6.97
2019-01-26T12:50:50.716Z,6.63
2019-01-26T12:53:26.114Z,6.60
2019-01-26T12:55:57.839Z,8.87
2019-01-26T12:58:29.684Z,6.57
2019-01-26T13:01:02.639Z,7.17
2019-01-26T13:03:35.023Z,6.97
2019-01-26T13:06:07.350Z,4.83
2019-01-26T13:08:39.827Z,7.33
2019-01-26T13:11:29.462Z,7.67
2019-01-26T13:14:01.561Z,8.90
2019-01-26T13:16:33.440Z,6.03
2019-01-26T13:19:05.257Z,8.13
2019-01-26T13:21:38.181Z,8.50
2019-01-26T13:24:11.010Z,9.40
2019-01-26T13:26:44.056Z,9.40
2019-01-26T13:29:15.820Z,7.73
2019-01-26T13:31:47.758Z,6.93
2019-01-26T13:34:19.406Z,6.43
2019-01-26T13:36:51.189Z,7.13
2019-01-26T13:39:22.919Z,7.40
2019-01-26T13:41:55.029Z,7.97
2019-01-26T13:44:26.809Z,7.97
2019-01-26T13:46:58.737Z,8.67
2019-01-26T13:49:30.748Z,7.87
2019-01-26T13:52:02.407Z,10.10
2019-01-26T13:54:35.361Z,10.37
2019-01-26T13:57:08.304Z,7.23
2019-01-26T13:59:40.275Z,8.70
2019-01-26T14:02:13.335Z,8.53
2019-01-26T14:04:45.540Z,7.80
2019-01-26T14:07:17.547Z,7.60
2019-01-26T14:09:50.826Z,7.70
2019-01-26T14:12:23.357Z,8.20
2019-01-26T14:14:55.050Z,5.00
2019-01-26T14:17:26.759Z,8.10
2019-01-26T14:19:58.737Z,9.07
2019-01-26T14:22:30.670Z,6.20
2019-01-26T14:25:02.360Z,5.70
2019-01-26T14:27:34.032Z,6.70
2019-01-26T14:30:10.768Z,6.30
2019-01-26T14:32:42.667Z,7.23
2019-01-26T14:35:14.505Z,6.17
2019-01-26T14:37:46.328Z,7.97
2019-01-26T14:40:18.313Z,9.60
2019-01-26T14:42:54.342Z,10.83
2019-01-26T14:45:23.841Z,10.67
2019-01-26T14:47:55.578Z,11.00
2019-01-26T14:50:27.447Z,14.60
2019-01-26T14:52:59.186Z,12.20
2019-01-26T14:55:31.174Z,15.23
2019-01-26T14:58:02.853Z,13.17
2019-01-26T15:00:35.519Z,10.50
2019-01-26T15:03:07.275Z,8.70
2019-01-26T15:05:39.068Z,7.87
2019-01-26T15:08:11.146Z,7.90
2019-01-26T15:10:43.153Z,10.67
2019-01-26T15:13:15.620Z,11.77
2019-01-26T15:15:47.383Z,8.23
2019-01-26T15:18:19.213Z,12.67
2019-01-26T15:20:51.143Z,10.67
2019-01-26T15:23:23.163Z,8.47
2019-01-26T15:25:54.922Z,9.67
2019-01-26T15:28:26.752Z,8.23
2019-01-26T15:30:58.531Z,8.57
2019-01-26T15:33:30.287Z,15.27
2019-01-26T15:36:08.687Z,8.77
2019-01-26T15:38:35.481Z,6.80
2019-01-26T15:41:09.385Z,7.77
2019-01-26T15:43:41.370Z,8.03
2019-01-26T15:46:13.274Z,5.17
2019-01-26T15:48:45.287Z,7.73
2019-01-26T15:51:17.207Z,6.43
2019-01-26T15:53:48.914Z,8.23
2019-01-26T15:56:20.728Z,6.30
2019-01-26T15:58:52.818Z,6.20
2019-01-26T16:01:24.658Z,7.00
2019-01-26T16:03:56.523Z,6.00
2019-01-26T16:06:28.531Z,6.50
2019-01-26T16:09:00.394Z,7.77
2019-01-26T16:11:33.030Z,7.73
2019-01-26T16:14:05.229Z,6.43
2019-01-26T16:16:37.429Z,6.17
2019-01-26T16:19:09.231Z,5.93
2019-01-26T16:21:42.613Z,5.50
2019-01-26T16:24:15.963Z,6.33
2019-01-26T16:26:47.802Z,5.90
2019-01-26T16:29:19.765Z,7.30
2019-01-26T16:31:53.585Z,4.83
2019-01-26T16:34:30.667Z,5.50
2019-01-26T16:37:04.825Z,5.37
2019-01-26T16:39:39.799Z,5.27
2019-01-26T16:42:11.570Z,9.70
2019-01-26T16:44:43.495Z,10.57
2019-01-26T16:47:15.449Z,7.37
2019-01-26T16:49:47.106Z,5.90
2019-01-26T16:52:19.148Z,5.20
2019-01-26T16:54:50.879Z,8.80
2019-01-26T16:57:22.658Z,5.70
2019-01-26T16:59:54.606Z,5.40
2019-01-26T17:02:26.733Z,5.20
2019-01-26T17:04:58.518Z,5.47
2019-01-26T17:07:31.185Z,7.37
2019-01-26T17:10:03.069Z,5.20
2019-01-26T17:12:35.480Z,5.13
2019-01-26T17:15:08.973Z,5.77
2019-01-26T17:17:41.131Z,10.50
2019-01-26T17:20:20.656Z,5.37
2019-01-26T17:22:52.438Z,5.60
2019-01-26T17:25:24.150Z,6.87
2019-01-26T17:27:55.885Z,8.37
2019-01-26T17:30:31.095Z,6.17
2019-01-26T17:33:07.359Z,5.07
2019-01-26T17:35:36.320Z,5.53
2019-01-26T17:38:08.256Z,4.93
2019-01-26T17:40:39.936Z,5.30
2019-01-26T17:43:11.599Z,4.17
2019-01-26T17:45:43.310Z,6.53
2019-01-26T17:48:15.771Z,5.67
2019-01-26T17:50:50.306Z,5.30
2019-01-26T17:53:23.487Z,5.43
2019-01-26T17:55:56.275Z,5.57
2019-01-26T17:58:27.929Z,9.93
2019-01-26T18:01:00.555Z,8.50
2019-01-26T18:03:32.398Z,3.70
2019-01-26T18:06:04.123Z,4.73
2019-01-26T18:08:35.927Z,5.80
2019-01-26T18:11:07.568Z,6.70
2019-01-26T18:13:39.540Z,5.43
2019-01-26T18:16:11.428Z,5.50
2019-01-26T18:18:43.680Z,6.50
2019-01-26T18:21:15.575Z,5.13
2019-01-26T18:23:47.427Z,5.07
2019-01-26T18:26:19.112Z,6.00
2019-01-26T18:28:51.110Z,4.93
2019-01-26T18:31:23.090Z,4.10
2019-01-26T18:33:54.813Z,6.97
2019-01-26T18:36:26.645Z,5.93
2019-01-26T18:38:58.449Z,6.50
2019-01-26T18:41:30.168Z,4.50
2019-01-26T18:44:01.967Z,6.03
2019-01-26T18:46:33.679Z,6.50
2019-01-26T18:49:05.494Z,5.40
2019-01-26T18:51:37.510Z,4.60
2019-01-26T18:54:09.414Z,4.60
2019-01-26T18:56:41.075Z,3.97
2019-01-26T18:59:12.735Z,3.90
2019-01-26T19:01:44.552Z,7.47
2019-01-26T19:04:28.261Z,8.93
2019-01-26T19:07:00.158Z,6.13
2019-01-26T19:09:31.847Z,9.23
2019-01-26T19:12:03.881Z,6.93
2019-01-26T19:14:35.716Z,7.17
2019-01-26T19:17:07.883Z,6.80
2019-01-26T19:19:39.539Z,6.77
2019-01-26T19:22:11.458Z,9.30
2019-01-26T19:24:43.144Z,7.73
2019-01-26T19:27:14.840Z,7.27
2019-01-26T19:29:46.505Z,5.60
2019-01-26T19:32:18.228Z,5.70
2019-01-26T19:34:49.971Z,5.80
2019-01-26T19:37:26.823Z,6.63
2019-01-26T19:39:58.642Z,4.77
2019-01-26T19:42:31.809Z,4.87
2019-01-26T19:45:03.562Z,5.77
2019-01-26T19:47:35.683Z,8.60
2019-01-26T19:50:08.475Z,5.93
2019-01-26T19:52:40.351Z,6.77
2019-01-26T19:55:12.212Z,5.27
2019-01-26T19:57:44.006Z,5.00
2019-01-26T20:00:16.530Z,5.40
2019-01-26T20:02:48.336Z,5.50
2019-01-26T20:05:22.371Z,4.27
2019-01-26T20:07:54.351Z,5.20
2019-01-26T20:10:26.244Z,4.10
2019-01-26T20:12:58.111Z,6.03
2019-01-26T20:15:29.881Z,5.80
2019-01-26T20:18:01.538Z,3.80
2019-01-26T20:20:35.902Z,3.70
2019-01-26T20:23:07.736Z,3.97
2019-01-26T20:25:39.604Z,4.10
2019-01-26T20:28:12.161Z,4.23
2019-01-26T20:30:43.951Z,3.93
2019-01-26T20:33:16.983Z,3.37
2019-01-26T20:35:48.630Z,3.13
2019-01-26T20:38:20.416Z,3.60
2019-01-26T20:40:52.734Z,3.00
2019-01-26T20:43:24.587Z,4.00
2019-01-26T20:45:56.313Z,3.03
2019-01-26T20:48:28.054Z,3.33
2019-01-26T20:50:59.809Z,4.47
2019-01-26T20:53:32.728Z,2.90
2019-01-26T20:56:06.498Z,2.83
2019-01-26T20:58:38.216Z,2.50
2019-01-26T21:01:10.208Z,4.00
2019-01-26T21:03:41.943Z,3.20
2019-01-26T21:06:14.020Z,3.33
2019-01-26T21:08:45.873Z,9.43
2019-01-26T21:11:17.889Z,3.07
2019-01-26T21:13:49.934Z,3.07
2019-01-26T21:16:21.727Z,4.27
2019-01-26T21:18:53.679Z,2.23
2019-01-26T21:21:31.963Z,3.33
2019-01-26T21:24:00.454Z,3.37
2019-01-26T21:26:32.430Z,2.87
2019-01-26T21:29:04.417Z,4.47
2019-01-26T21:31:36.569Z,2.80
2019-01-26T21:34:08.552Z,2.57
2019-01-26T21:36:40.346Z,5.53
2019-01-26T21:39:12.054Z,3.43
2019-01-26T21:41:44.126Z,3.03
2019-01-26T21:44:19.752Z,2.73
2019-01-26T21:46:52.549Z,3.07
2019-01-26T21:49:24.344Z,3.90
2019-01-26T21:51:56.017Z,2.23
2019-01-26T21:54:27.767Z,5.63
2019-01-26T21:56:59.570Z,5.33
2019-01-26T21:59:31.221Z,4.03
2019-01-26T22:02:03.180Z,3.10
2019-01-26T22:04:35.031Z,3.10
2019-01-26T22:07:07.201Z,4.00
2019-01-26T22:09:38.879Z,4.30
2019-01-26T22:12:10.757Z,3.20
2019-01-26T22:14:42.743Z,4.47
2019-01-26T22:17:14.693Z,3.83
2019-01-26T22:19:46.363Z,2.83
2019-01-26T22:22:18.186Z,2.10
2019-01-26T22:24:50.120Z,2.60
2019-01-26T22:27:21.941Z,4.50
2019-01-26T22:29:54.802Z,3.40
2019-01-26T22:32:26.619Z,2.63
2019-01-26T22:34:58.349Z,3.10
2019-01-26T22:37:30.177Z,3.47
2019-01-26T22:40:01.826Z,3.77
2019-01-26T22:42:35.085Z,2.40
2019-01-26T22:45:08.239Z,2.37
2019-01-26T22:47:39.851Z,3.23
2019-01-26T22:50:13.852Z,3.10
2019-01-26T22:52:45.711Z,3.27
2019-01-26T22:55:18.562Z,2.87
2019-01-26T22:57:55.940Z,2.70
2019-01-26T23:01:28.231Z,2.40
2019-01-26T23:04:50.895Z,2.50
2019-01-26T23:07:51.838Z,2.53
2019-01-26T23:11:38.271Z,2.17
2019-01-26T23:15:25.885Z,6.00
2019-01-26T23:18:34.833Z,3.90
2019-01-26T23:22:33.749Z,5.33
2019-01-26T23:25:47.746Z,3.03
2019-01-26T23:28:53.494Z,2.33
2019-01-26T23:31:25.201Z,3.80
2019-01-26T23:33:58.006Z,3.30
2019-01-26T23:36:29.758Z,2.53
2019-01-26T23:39:02.530Z,3.30
2019-01-26T23:41:34.583Z,2.23
2019-01-26T23:44:08.028Z,3.50
2019-01-26T23:46:39.850Z,3.20
2019-01-26T23:49:11.455Z,2.73
2019-01-26T23:51:43.193Z,5.07
2019-01-26T23:54:14.924Z,2.13
2019-01-26T23:56:46.799Z,2.73
2019-01-26T23:59:18.462Z,3.20
